Time;durP1;ratioP1;P1;durP2;ratioP2;P2;SDS_P1;SDS_P2;PMS_P1;PMS_P2;Temp;Humidity;BMP_temperature;BMP_pressure;BME280_temperature;BME280_humidity;BME280_pressure;Samples;Min_cycle;Max_cycle;Signal;HPM_P1;HPM_P2
2022/12/25 00:01:09;;;;;;;3.50;1.83;;;;;;;8.62;100.00;98242.09;5055897;28;20236;-71
2022/12/25 00:03:36;;;;;;;4.50;1.83;;;;;;;8.57;100.00;98238.41;5056616;28;20567;-71
2022/12/25 00:06:03;;;;;;;1.97;1.50;;;;;;;8.60;100.00;98238.03;5053399;28;20201;-71
2022/12/25 00:08:30;;;;;;;3.70;1.90;;;;;;;8.61;100.00;98242.28;5053177;28;20205;-71
2022/12/25 00:11:00;;;;;;;3.30;1.70;;;;;;;8.64;100.00;98252.50;5053179;28;20225;-71
2022/12/25 00:13:27;;;;;;;1.93;1.70;;;;;;;8.68;100.00;98246.59;5053677;28;20189;-71
2022/12/25 00:15:54;;;;;;;6.40;2.03;;;;;;;8.67;100.00;98252.06;5053548;28;20205;-71
2022/12/25 00:18:20;;;;;;;4.03;2.30;;;;;;;8.65;100.00;98249.63;5053547;28;20217;-71
2022/12/25 00:20:59;;;;;;;5.23;2.80;;;;;;;8.59;100.00;98254.91;5052851;28;20228;-71
2022/12/25 00:23:26;;;;;;;4.73;3.33;;;;;;;8.59;100.00;98261.03;5052465;28;20189;-71
2022/12/25 00:25:53;;;;;;;5.20;3.40;;;;;;;8.54;100.00;98252.06;5053585;28;20567;-71
2022/12/25 00:28:21;;;;;;;7.43;3.93;;;;;;;8.54;100.00;98254.69;5053458;28;20209;-71
2022/12/25 00:30:48;;;;;;;7.43;4.03;;;;;;;8.55;100.00;98246.56;5053318;28;20207;-71
2022/12/25 00:33:14;;;;;;;6.50;4.17;;;;;;;8.54;100.00;98257.34;5053410;28;20575;-71
2022/12/25 00:35:41;;;;;;;6.50;4.13;;;;;;;8.53;100.00;98238.00;5053353;28;20214;-71
2022/12/25 00:38:07;;;;;;;6.30;4.43;;;;;;;8.57;100.00;98235.75;5053106;28;20201;-71
2022/12/25 00:40:34;;;;;;;7.10;4.40;;;;;;;8.53;100.00;98242.47;5053142;28;20239;-71
2022/12/25 00:43:01;;;;;;;8.40;4.87;;;;;;;8.49;100.00;98242.06;5053029;28;20205;-71
2022/12/25 00:45:27;;;;;;;8.37;4.40;;;;;;;8.44;100.00;98241.88;5053259;28;20204;-71
2022/12/25 00:47:53;;;;;;;6.70;4.60;;;;;;;8.43;100.00;98244.72;5053152;28;20209;-71
2022/12/25 00:50:20;;;;;;;6.97;4.57;;;;;;;8.50;100.00;98245.53;5052766;28;20657;-71
2022/12/25 00:52:46;;;;;;;8.53;4.83;;;;;;;8.47;100.00;98251.25;5053187;28;20228;-71
2022/12/25 00:55:12;;;;;;;8.47;4.20;;;;;;;8.43;100.00;98242.88;5053231;28;20208;-71
2022/12/25 00:57:39;;;;;;;6.27;4.70;;;;;;;8.41;100.00;98252.06;5053622;28;20209;-71
2022/12/25 01:00:05;;;;;;;9.13;4.87;;;;;;;8.46;100.00;98247.75;5053882;28;20244;-71
2022/12/25 01:02:32;;;;;;;8.17;5.17;;;;;;;8.50;100.00;98253.47;5053091;28;20225;-71
2022/12/25 01:04:58;;;;;;;8.13;4.70;;;;;;;8.50;100.00;98246.34;5053154;28;20216;-71
2022/12/25 01:07:26;;;;;;;7.37;4.70;;;;;;;8.52;100.00;98246.16;5053109;28;20228;-71
2022/12/25 01:12:41;;;;;;;10.03;5.47;;;;;;;8.49;100.00;98257.97;5052785;28;20351;-71
2022/12/25 01:15:09;;;;;;;6.47;4.87;;;;;;;8.41;100.00;98255.50;5053065;28;20201;-71
2022/12/25 01:17:36;;;;;;;6.97;4.77;;;;;;;8.40;100.00;98253.03;5055970;28;20208;-71
2022/12/25 01:20:03;;;;;;;10.43;4.57;;;;;;;8.56;100.00;98245.53;5056740;28;20224;-71
2022/12/25 01:22:29;;;;;;;7.00;4.60;;;;;;;8.54;100.00;98252.88;5056557;28;20229;-71
2022/12/25 01:24:56;;;;;;;7.93;4.83;;;;;;;8.46;100.00;98258.38;5056717;28;20220;-71
2022/12/25 01:27:22;;;;;;;7.90;4.90;;;;;;;8.44;100.00;98263.06;5056406;28;20291;-71
2022/12/25 01:29:48;;;;;;;9.00;5.30;;;;;;;8.41;100.00;98255.50;5056292;28;20553;-71
2022/12/25 01:32:15;;;;;;;8.50;4.87;;;;;;;8.39;100.00;98257.56;5056534;28;20232;-71
2022/12/25 01:34:41;;;;;;;7.07;5.00;;;;;;;8.36;100.00;98262.41;5056154;28;20542;-71
2022/12/25 01:37:07;;;;;;;6.60;5.00;;;;;;;8.36;100.00;98265.06;5056160;28;20664;-71
2022/12/25 01:39:34;;;;;;;6.87;4.80;;;;;;;8.38;100.00;98271.00;5056424;28;20209;-71
2022/12/25 01:42:01;;;;;;;7.03;4.80;;;;;;;8.37;100.00;98279.97;5055914;28;20596;-71
2022/12/25 01:44:36;;;;;;;4.87;4.07;;;;;;;8.48;100.00;98282.84;5056328;28;20212;-71
2022/12/25 01:47:04;;;;;;;6.37;4.60;;;;;;;8.43;100.00;98281.81;5056299;28;20306;-71
2022/12/25 01:49:33;;;;;;;8.87;4.90;;;;;;;8.42;100.00;98285.47;5055948;28;20205;-71
2022/12/25 01:52:06;;;;;;;5.97;4.63;;;;;;;8.40;100.00;98275.06;5055787;28;20230;-71
2022/12/25 01:54:41;;;;;;;4.77;4.17;;;;;;;8.40;100.00;98275.06;5055854;28;20664;-71
2022/12/25 01:57:11;;;;;;;6.20;4.20;;;;;;;8.43;100.00;98265.91;5054941;28;20200;-70
2022/12/25 01:59:39;;;;;;;7.00;3.77;;;;;;;8.44;100.00;98268.34;5056837;28;20198;-71
2022/12/25 02:02:05;;;;;;;9.10;3.97;;;;;;;8.45;100.00;98274.44;5055825;28;20240;-71
2022/12/25 02:04:38;;;;;;;7.20;4.20;;;;;;;8.42;100.00;98262.44;5055939;28;20209;-71
2022/12/25 02:07:23;;;;;;;6.63;3.87;;;;;;;8.41;100.00;98262.66;5056503;28;20216;-71
2022/12/25 02:09:50;;;;;;;5.70;4.10;;;;;;;8.41;100.00;98262.66;5055916;28;20204;-71
2022/12/25 02:12:25;;;;;;;6.40;3.67;;;;;;;8.46;100.00;98258.38;5055748;28;20224;-71
2022/12/25 02:14:58;;;;;;;7.63;3.80;;;;;;;8.48;100.00;98259.00;5055485;28;20570;-71
2022/12/25 02:17:49;;;;;;;5.43;3.73;;;;;;;8.43;100.00;98258.78;5055788;28;20193;-71
2022/12/25 02:20:40;;;;;;;6.70;3.57;;;;;;;8.47;100.00;98265.28;5055319;28;20202;-71
2022/12/25 02:23:30;;;;;;;7.13;3.63;;;;;;;8.50;100.00;98259.59;5055261;28;20593;-71
2022/12/25 02:26:10;;;;;;;5.90;3.67;;;;;;;8.44;100.00;98263.06;5055299;28;20204;-71
2022/12/25 02:29:08;;;;;;;4.03;3.50;;;;;;;8.44;100.00;98255.09;5055272;28;20204;-71
2022/12/25 02:31:43;;;;;;;6.93;4.10;;;;;;;8.45;100.00;98251.44;5055578;28;20229;-71
2022/12/25 02:34:32;;;;;;;4.37;3.67;;;;;;;8.48;100.00;98250.22;5055981;28;20188;-71
2022/12/25 02:37:12;;;;;;;5.73;3.47;;;;;;;8.43;100.00;98253.47;5055349;28;20193;-71
2022/12/25 02:40:02;;;;;;;4.93;3.63;;;;;;;8.43;100.00;98258.78;5055242;28;20200;-71
2022/12/25 03:07:22;;;;;;;3.60;2.20;;;;;;;8.50;100.00;98242.88;5053603;28;20222;-71
2022/12/25 03:12:47;;;;;;;5.23;2.43;;;;;;;8.44;100.00;98249.81;5054747;28;20665;-71
2022/12/25 03:18:03;;;;;;;2.63;2.17;;;;;;;8.44;100.00;98238.38;5054408;28;20177;-71
2022/12/25 03:28:46;;;;;;;2.73;2.10;;;;;;;8.40;100.00;98227.38;5054146;28;20184;-71
2022/12/25 03:31:38;;;;;;;5.30;2.47;;;;;;;8.39;100.00;98224.94;5054119;28;20225;-71
2022/12/25 03:37:37;;;;;;;3.07;2.17;;;;;;;8.34;100.00;98217.59;5054325;28;20227;-71
2022/12/25 04:36:11;;;;;;;3.87;2.40;;;;;;;8.30;100.00;98187.22;5053338;28;20181;-71
2022/12/25 04:38:39;;;;;;;4.50;2.60;;;;;;;8.31;100.00;98182.72;5053454;28;20197;-71
2022/12/25 04:41:06;;;;;;;5.73;2.53;;;;;;;8.30;100.00;98181.94;5053133;28;20229;-71
2022/12/25 04:43:33;;;;;;;2.00;1.80;;;;;;;8.34;100.00;98183.16;5052895;28;20672;-71
2022/12/25 04:46:00;;;;;;;2.30;1.83;;;;;;;8.31;100.00;98180.06;5053227;28;20574;-71
2022/12/25 04:48:28;;;;;;;2.70;2.20;;;;;;;8.40;100.00;98179.69;5052875;28;20575;-71
2022/12/25 04:50:55;;;;;;;2.70;2.00;;;;;;;8.46;100.00;98192.13;5055078;28;20232;-71
2022/12/25 04:53:22;;;;;;;2.13;1.93;;;;;;;8.49;100.00;98190.91;5057241;28;20209;-71
2022/12/25 04:55:48;;;;;;;2.90;2.00;;;;;;;8.42;100.00;98180.28;5056962;28;20209;-71
2022/12/25 04:58:14;;;;;;;2.67;2.17;;;;;;;8.40;100.00;98178.88;5057202;28;20216;-71
2022/12/25 05:00:41;;;;;;;2.90;2.00;;;;;;;8.41;100.00;98180.53;5056993;28;20221;-71
2022/12/25 05:03:07;;;;;;;2.37;2.03;;;;;;;8.40;100.00;98174.41;5057089;28;20212;-71
2022/12/25 05:05:34;;;;;;;2.40;2.20;;;;;;;8.39;100.00;98169.31;5057073;28;20207;-71
2022/12/25 05:08:00;;;;;;;3.73;1.80;;;;;;;8.35;100.00;98173.38;5056654;28;20206;-71
2022/12/25 05:10:26;;;;;;;2.13;1.90;;;;;;;8.41;100.00;98167.28;5056601;28;20209;-70
2022/12/25 05:12:53;;;;;;;3.43;2.10;;;;;;;8.47;100.00;98158.50;5056647;28;20221;-71
2022/12/25 05:15:19;;;;;;;2.73;1.90;;;;;;;8.43;100.00;98159.94;5056809;28;20201;-71
2022/12/25 05:17:45;;;;;;;2.93;2.10;;;;;;;8.47;100.00;98159.31;5056714;28;20209;-71
2022/12/25 05:20:12;;;;;;;2.93;2.13;;;;;;;8.41;100.00;98154.84;5056770;28;20212;-70
2022/12/25 05:22:38;;;;;;;2.70;2.10;;;;;;;8.40;100.00;98152.38;5056310;28;20233;-71
2022/12/25 05:25:05;;;;;;;4.53;2.50;;;;;;;8.38;100.00;98162.38;5056698;28;20205;-71
2022/12/25 05:27:31;;;;;;;2.13;1.90;;;;;;;8.38;100.00;98154.44;5056711;28;20205;-71
2022/12/25 05:29:57;;;;;;;3.13;2.10;;;;;;;8.38;100.00;98165.03;5056662;28;20211;-71
2022/12/25 05:32:24;;;;;;;5.43;2.53;;;;;;;8.39;100.00;98153.41;5056521;28;20217;-71
2022/12/25 05:34:50;;;;;;;3.23;2.57;;;;;;;8.38;100.00;98154.44;5056557;28;20200;-71
2022/12/25 05:37:16;;;;;;;2.80;2.20;;;;;;;8.28;100.00;98156.66;5056399;28;20209;-71
2022/12/25 05:39:43;;;;;;;2.33;2.13;;;;;;;8.28;100.00;98161.97;5056058;28;20566;-71
2022/12/25 05:42:09;;;;;;;2.53;2.20;;;;;;;8.27;100.00;98158.50;5055843;28;20695;-71
2022/12/25 05:44:35;;;;;;;3.27;2.50;;;;;;;8.30;100.00;98163.41;5055945;28;20205;-71
2022/12/25 05:47:01;;;;;;;3.10;2.80;;;;;;;8.30;100.00;98150.16;5055985;28;20211;-71
2022/12/25 05:49:28;;;;;;;4.33;2.37;;;;;;;8.37;100.00;98145.66;5056784;28;20209;-71
2022/12/25 05:51:54;;;;;;;3.70;2.20;;;;;;;8.39;100.00;98134.88;5056148;28;20229;-71
2022/12/25 05:54:20;;;;;;;2.20;2.00;;;;;;;8.42;100.00;98124.66;5056191;28;20201;-71
2022/12/25 05:56:47;;;;;;;2.67;2.27;;;;;;;8.43;100.00;98126.31;5056660;28;20216;-71
2022/12/25 05:59:13;;;;;;;2.37;2.17;;;;;;;8.44;100.00;98137.72;5055805;28;20221;-71
2022/12/25 06:01:40;;;;;;;3.10;2.50;;;;;;;8.46;100.00;98128.53;5055256;28;20316;-71
2022/12/25 06:04:06;;;;;;;2.83;2.10;;;;;;;8.51;100.00;98125.31;5055884;28;20213;-71
2022/12/25 06:06:32;;;;;;;4.33;2.40;;;;;;;8.53;100.00;98125.91;5056403;28;20542;-71
2022/12/25 06:08:59;;;;;;;4.60;2.40;;;;;;;8.54;100.00;98122.22;5055840;28;20220;-71
2022/12/25 06:11:25;;;;;;;2.40;2.20;;;;;;;8.53;100.00;98125.91;5055718;28;20221;-71
2022/12/25 06:13:52;;;;;;;3.00;2.33;;;;;;;8.48;100.00;98121.22;5055449;28;20684;-71
2022/12/25 06:16:19;;;;;;;2.27;2.10;;;;;;;8.51;100.00;98125.31;5055714;28;20212;-71
2022/12/25 06:18:51;;;;;;;4.07;2.50;;;;;;;8.56;100.00;98120.19;5056254;28;20208;-71
2022/12/25 06:21:18;;;;;;;2.87;2.30;;;;;;;8.54;100.00;98116.91;5055351;28;20291;-71
2022/12/25 06:23:45;;;;;;;3.27;2.70;;;;;;;8.53;100.00;98115.28;5055671;28;20194;-71
2022/12/25 06:26:16;;;;;;;3.73;2.73;;;;;;;8.51;100.00;98118.16;5055540;28;20205;-71
2022/12/25 06:28:43;;;;;;;3.03;2.70;;;;;;;8.50;100.00;98110.41;5055602;28;20190;-71
2022/12/25 06:31:14;;;;;;;4.13;2.77;;;;;;;8.52;100.00;98109.19;5055444;28;20221;-71
2022/12/25 06:33:40;;;;;;;2.57;2.37;;;;;;;8.52;100.00;98108.38;5055187;28;20193;-71
2022/12/25 06:36:15;;;;;;;4.03;2.70;;;;;;;8.52;100.00;98109.19;5055340;28;20205;-71
2022/12/25 06:38:42;;;;;;;2.73;2.40;;;;;;;8.51;100.00;98112.84;5055287;28;20193;-71
2022/12/25 06:41:11;;;;;;;2.97;2.70;;;;;;;8.48;100.00;98107.97;5054701;28;20229;-71
2022/12/25 06:43:38;;;;;;;3.67;2.70;;;;;;;8.47;100.00;98114.28;5055112;28;20209;-71
2022/12/25 06:46:08;;;;;;;3.17;2.50;;;;;;;8.45;100.00;98110.19;5055107;28;20571;-71
2022/12/25 06:48:36;;;;;;;3.87;2.70;;;;;;;8.42;100.00;98116.72;5055058;28;20197;-71
2022/12/25 06:51:03;;;;;;;5.00;2.67;;;;;;;8.39;100.00;98117.16;5054622;28;20619;-71
2022/12/25 06:53:30;;;;;;;3.10;2.60;;;;;;;8.37;100.00;98121.03;5055899;28;20209;-71
2022/12/25 06:56:07;;;;;;;3.17;2.30;;;;;;;8.30;100.00;98126.31;5055089;28;20575;-71
2022/12/25 06:58:33;;;;;;;2.87;2.60;;;;;;;8.30;100.00;98131.59;5054717;28;20220;-71
2022/12/25 07:01:00;;;;;;;5.20;3.00;;;;;;;8.32;100.00;98128.75;5054773;28;20236;-71
2022/12/25 07:03:28;;;;;;;2.93;2.63;;;;;;;8.30;100.00;98121.00;5054931;28;20201;-71
2022/12/25 07:05:55;;;;;;;3.50;2.57;;;;;;;8.30;100.00;98120.19;5053612;28;20217;-71
2022/12/25 07:08:21;;;;;;;3.50;2.30;;;;;;;8.32;100.00;98128.75;5054477;28;20212;-71
2022/12/25 07:10:47;;;;;;;4.00;2.60;;;;;;;8.32;100.00;98118.16;5054384;28;20206;-71
2022/12/25 07:13:14;;;;;;;4.13;2.40;;;;;;;8.33;100.00;98127.75;5054059;28;20217;-71
2022/12/25 07:15:40;;;;;;;2.53;2.30;;;;;;;8.34;100.00;98130.19;5053947;28;20205;-71
2022/12/25 07:18:08;;;;;;;4.37;2.60;;;;;;;8.38;100.00;98139.34;5054312;28;20228;-71
2022/12/25 07:20:36;;;;;;;2.80;2.40;;;;;;;8.44;100.00;98130.59;5054854;28;20228;-71
2022/12/25 07:23:02;;;;;;;5.20;2.70;;;;;;;8.50;100.00;98131.59;5054198;28;20229;-71
2022/12/25 07:25:28;;;;;;;2.80;2.60;;;;;;;8.50;100.00;98124.47;5054444;28;20208;-71
2022/12/25 07:27:55;;;;;;;4.10;2.30;;;;;;;8.45;100.00;98121.63;5054428;28;20208;-71
2022/12/25 07:30:21;;;;;;;2.53;2.33;;;;;;;8.47;100.00;98122.22;5054384;28;20211;-72
2022/12/25 07:32:48;;;;;;;3.20;2.33;;;;;;;8.48;100.00;98115.09;5054282;28;20221;-71
2022/12/25 07:35:14;;;;;;;4.00;2.20;;;;;;;8.48;100.00;98104.50;5054133;28;20296;-71
2022/12/25 07:37:41;;;;;;;3.47;2.30;;;;;;;8.54;100.00;98107.16;5054101;28;20228;-71
2022/12/25 07:40:08;;;;;;;3.97;2.47;;;;;;;8.57;100.00;98106.75;5054036;28;20211;-71
2022/12/25 07:42:34;;;;;;;3.47;2.60;;;;;;;8.62;100.00;98092.88;5053763;28;20229;-71
2022/12/25 07:45:00;;;;;;;3.73;2.60;;;;;;;8.72;100.00;98082.66;5053929;28;20209;-71
2022/12/25 07:47:26;;;;;;;4.53;2.83;;;;;;;8.74;100.00;98078.78;5053889;28;20210;-71
2022/12/25 07:49:53;;;;;;;5.30;2.63;;;;;;;8.76;100.00;98062.69;5053432;28;20668;-71
2022/12/25 07:52:19;;;;;;;4.20;3.10;;;;;;;8.73;100.00;98077.16;5053693;28;20242;-71
2022/12/25 07:54:45;;;;;;;4.03;3.00;;;;;;;8.72;100.00;98067.59;5053779;28;20205;-71
2022/12/25 07:57:12;;;;;;;3.20;2.90;;;;;;;8.73;100.00;98087.75;5053928;28;20215;-71
2022/12/25 07:59:38;;;;;;;3.67;2.93;;;;;;;8.69;100.00;98083.09;5054300;28;20217;-71
2022/12/25 08:02:04;;;;;;;2.70;2.50;;;;;;;8.69;100.00;98091.03;5053586;28;20236;-71
2022/12/25 08:04:31;;;;;;;3.10;2.80;;;;;;;8.71;100.00;98096.94;5053687;28;20201;-71
2022/12/25 08:06:57;;;;;;;3.67;2.70;;;;;;;8.72;100.00;98098.56;5053467;28;20220;-71
2022/12/25 08:09:23;;;;;;;3.10;2.80;;;;;;;8.70;100.00;98103.25;5053543;28;20208;-71
2022/12/25 08:11:50;;;;;;;3.60;2.40;;;;;;;8.67;100.00;98096.53;5053588;28;20227;-71
2022/12/25 08:14:16;;;;;;;3.73;2.87;;;;;;;8.59;100.00;98109.16;5053610;28;20202;-71
2022/12/25 08:16:43;;;;;;;6.00;2.70;;;;;;;8.51;100.00;98110.19;5053583;28;20205;-71
2022/12/25 08:19:10;;;;;;;5.10;2.80;;;;;;;8.51;100.00;98109.41;5053534;28;20213;-71
2022/12/25 08:21:37;;;;;;;3.50;2.70;;;;;;;8.56;100.00;98114.91;5053236;28;20232;-71
2022/12/25 08:24:04;;;;;;;2.83;2.53;;;;;;;8.56;100.00;98114.91;5053462;28;20197;-71
2022/12/25 08:26:30;;;;;;;3.20;2.23;;;;;;;8.61;100.00;98112.44;5052811;28;20209;-71
2022/12/25 08:28:57;;;;;;;3.17;2.83;;;;;;;8.53;100.00;98104.69;5053450;28;20205;-71
2022/12/25 08:31:27;;;;;;;4.20;2.70;;;;;;;8.63;100.00;98105.09;5053364;28;20628;-71
2022/12/25 08:33:56;;;;;;;2.70;2.50;;;;;;;8.64;100.00;98112.03;5053279;28;20213;-71
2022/12/25 08:36:23;;;;;;;3.13;2.83;;;;;;;8.67;100.00;98109.78;5053736;28;20220;-71
2022/12/25 08:38:50;;;;;;;2.47;2.27;;;;;;;8.72;100.00;98115.28;5052845;28;20220;-71
2022/12/25 08:41:16;;;;;;;3.33;2.87;;;;;;;8.69;100.00;98120.19;5052682;28;20716;-71
2022/12/25 08:43:43;;;;;;;3.57;2.57;;;;;;;8.71;100.00;98118.97;5053163;28;20232;-71
2022/12/25 08:46:10;;;;;;;3.17;2.57;;;;;;;8.73;100.00;98116.13;5053197;28;20205;-71
2022/12/25 08:48:37;;;;;;;4.50;3.00;;;;;;;8.79;100.00;98117.94;5053158;28;20209;-71
2022/12/25 08:51:04;;;;;;;2.63;2.30;;;;;;;8.80;100.00;98114.25;5053012;28;20248;-71
2022/12/25 08:53:31;;;;;;;5.47;2.53;;;;;;;8.80;100.00;98111.59;5052829;28;20675;-71
2022/12/25 08:56:03;;;;;;;3.00;2.27;;;;;;;8.81;100.00;98107.94;5053210;28;20205;-71
2022/12/25 08:58:29;;;;;;;2.50;2.30;;;;;;;8.83;100.00;98106.69;5052902;28;20199;-71
2022/12/25 09:00:56;;;;;;;2.33;2.13;;;;;;;8.85;100.00;98098.53;5053064;28;20229;-71
2022/12/25 09:03:23;;;;;;;3.80;2.40;;;;;;;8.86;100.00;98090.38;5053577;28;20221;-71
2022/12/25 09:05:50;;;;;;;3.13;2.27;;;;;;;8.78;100.00;98080.00;5053029;28;20220;-71
2022/12/25 09:08:17;;;;;;;2.27;2.00;;;;;;;8.81;100.00;98071.66;5053053;28;20212;-71
2022/12/25 09:10:43;;;;;;;2.83;2.60;;;;;;;8.89;100.00;98063.47;5052823;28;20289;-71
2022/12/25 09:13:10;;;;;;;2.37;1.93;;;;;;;8.91;100.00;98050.81;5052664;28;20691;-71
2022/12/25 09:15:38;;;;;;;2.53;2.33;;;;;;;8.97;100.00;98049.97;5052659;28;20672;-71
2022/12/25 09:18:05;;;;;;;2.40;2.20;;;;;;;9.02;100.00;98054.66;5052637;28;20212;-71
2022/12/25 09:20:32;;;;;;;2.27;2.07;;;;;;;8.99;100.00;98060.38;5052542;28;20672;-71
2022/12/25 09:22:58;;;;;;;4.27;2.30;;;;;;;9.05;100.00;98064.84;5052594;28;20232;-71
2022/12/25 09:25:25;;;;;;;2.50;2.30;;;;;;;9.06;100.00;98063.84;5052736;28;20201;-71
2022/12/25 09:27:51;;;;;;;2.90;2.60;;;;;;;9.13;100.00;98069.91;5052462;28;20252;-71
2022/12/25 09:30:18;;;;;;;3.23;2.60;;;;;;;9.12;100.00;98073.59;5052730;28;20201;-71
2022/12/25 09:32:44;;;;;;;4.43;3.20;;;;;;;9.18;100.00;98072.75;5052528;28;20222;-71
2022/12/25 09:35:12;;;;;;;4.13;2.63;;;;;;;9.07;100.00;98073.41;5052375;28;20576;-71
2022/12/25 09:37:39;;;;;;;2.87;2.67;;;;;;;9.01;100.00;98082.22;5054560;28;20211;-71
2022/12/25 09:40:06;;;;;;;5.07;3.27;;;;;;;9.09;100.00;98082.00;5056657;28;20216;-71
2022/12/25 09:42:33;;;;;;;3.47;3.17;;;;;;;9.16;100.00;98077.47;5056142;28;20233;-70
2022/12/25 09:45:04;;;;;;;5.97;2.93;;;;;;;9.31;100.00;98072.69;5055813;28;20213;-70
2022/12/25 09:47:33;;;;;;;3.80;3.37;;;;;;;9.30;100.00;98077.22;5054686;28;20201;-71
2022/12/25 09:50:24;;;;;;;2.80;2.60;;;;;;;9.40;100.00;98079.41;5056137;28;20209;-71
2022/12/25 09:53:05;;;;;;;3.37;2.40;;;;;;;9.48;100.00;98084.47;5056005;28;20226;-71
2022/12/25 09:55:36;;;;;;;3.93;2.40;;;;;;;9.80;100.00;98076.34;5056053;28;20190;-71
2022/12/25 09:58:11;;;;;;;5.30;2.53;;;;;;;9.74;100.00;98068.41;5055892;28;20209;-71
2022/12/25 10:00:42;;;;;;;2.50;2.30;;;;;;;9.78;100.00;98069.63;5054570;28;20189;-71
2022/12/25 10:03:26;;;;;;;2.53;2.33;;;;;;;9.84;100.00;98071.41;5056440;28;20210;-71
2022/12/25 10:06:13;;;;;;;3.27;2.57;;;;;;;9.89;100.00;98074.25;5054715;28;20189;-71
2022/12/25 10:09:03;;;;;;;3.23;2.93;;;;;;;9.96;100.00;98078.47;5054623;28;20193;-71
2022/12/25 10:11:55;;;;;;;4.03;2.63;;;;;;;10.08;100.00;98066.19;5054702;28;20229;-71
2022/12/25 10:14:27;;;;;;;2.37;2.17;;;;;;;10.42;100.00;98057.72;5055663;28;20197;-71
2022/12/25 10:16:56;;;;;;;3.30;2.50;;;;;;;10.48;100.00;98061.34;5055471;28;20197;-71
2022/12/25 10:19:32;;;;;;;4.93;2.80;;;;;;;10.49;100.00;98057.66;5055448;28;20201;-71
2022/12/25 10:22:03;;;;;;;3.10;2.83;;;;;;;10.40;100.00;98046.50;5054993;28;20239;-71
2022/12/25 10:24:38;;;;;;;4.10;2.70;;;;;;;10.38;100.00;98043.25;5054624;28;20204;-71
2022/12/25 10:27:14;;;;;;;4.27;2.67;;;;;;;10.44;100.00;98049.53;5055370;28;20531;-71
2022/12/25 10:29:41;;;;;;;4.13;3.00;;;;;;;10.48;100.00;98040.09;5053944;28;20204;-71
2022/12/25 10:32:10;;;;;;;2.87;2.63;;;;;;;10.58;100.00;98035.91;5054877;28;20235;-71
2022/12/25 10:34:40;;;;;;;3.33;2.97;;;;;;;10.62;100.00;98031.78;5055307;28;20211;-71
2022/12/25 10:37:06;;;;;;;3.37;3.07;;;;;;;10.71;100.00;98029.66;5054088;28;20205;-71
2022/12/25 10:39:32;;;;;;;4.07;3.67;;;;;;;10.67;100.00;98018.63;5053783;28;20209;-71
2022/12/25 10:42:11;;;;;;;4.70;3.60;;;;;;;10.75;100.00;98012.22;5054955;28;20226;-71
2022/12/25 10:44:37;;;;;;;3.80;3.50;;;;;;;10.76;100.00;98008.53;5054967;28;20212;-71
2022/12/25 10:47:04;;;;;;;3.37;3.07;;;;;;;10.82;100.00;98007.66;5054966;28;20201;-71
2022/12/25 10:49:39;;;;;;;3.77;2.90;;;;;;;10.86;100.00;98006.97;5054561;28;20660;-71
2022/12/25 10:52:27;;;;;;;4.17;3.27;;;;;;;10.87;100.00;97997.97;5054788;28;20232;-71
2022/12/25 10:54:55;;;;;;;4.37;3.10;;;;;;;10.98;100.00;97993.75;5054776;28;20216;-71
2022/12/25 10:57:23;;;;;;;3.87;2.80;;;;;;;10.98;100.00;97994.56;5054451;28;20682;-71
2022/12/25 10:59:55;;;;;;;3.53;3.13;;;;;;;11.06;100.00;97996.13;5054498;28;20563;-71
2022/12/25 11:02:22;;;;;;;4.23;3.20;;;;;;;11.10;100.00;97982.13;5054124;28;20225;-71
2022/12/25 11:04:49;;;;;;;4.10;3.70;;;;;;;11.26;100.00;97978.03;5054498;28;20205;-71
2022/12/25 11:07:24;;;;;;;3.90;3.40;;;;;;;11.23;100.00;97978.50;5053120;28;20208;-71
2022/12/25 11:10:00;;;;;;;3.70;3.40;;;;;;;11.13;100.00;97970.25;5054545;28;20195;-71
2022/12/25 11:12:37;;;;;;;3.37;2.90;;;;;;;11.35;100.00;97973.22;5054157;28;20699;-71
2022/12/25 11:15:32;;;;;;;3.63;3.13;;;;;;;11.28;100.00;97968.78;5054870;28;20206;-71
2022/12/25 11:17:59;;;;;;;4.30;3.13;;;;;;;11.23;100.00;97967.03;5054416;28;20197;-71
2022/12/25 11:20:26;;;;;;;4.77;3.20;;;;;;;11.15;100.00;97968.16;5053829;28;20664;-71
2022/12/25 11:22:52;;;;;;;3.43;3.10;;;;;;;11.21;100.00;97964.59;5053836;28;20225;-71
2022/12/25 11:25:25;;;;;;;3.60;3.30;;;;;;;11.38;100.00;97960.28;5054227;28;20206;-71
2022/12/25 11:28:00;;;;;;;3.87;3.10;;;;;;;11.40;100.00;97963.50;5054158;28;20210;-71
2022/12/25 11:30:29;;;;;;;3.13;2.87;;;;;;;11.51;100.00;97962.75;5054141;28;20206;-71
2022/12/25 11:33:00;;;;;;;2.97;2.77;;;;;;;11.63;100.00;97949.50;5054366;28;20226;-71
2022/12/25 11:35:31;;;;;;;3.13;2.53;;;;;;;11.93;100.00;97943.06;5054233;28;20193;-71
2022/12/25 11:37:58;;;;;;;3.00;2.40;;;;;;;11.95;100.00;97945.50;5053822;28;20189;-71
2022/12/25 11:40:35;;;;;;;2.50;2.30;;;;;;;12.09;100.00;97947.75;5053145;28;20676;-71
2022/12/25 11:43:10;;;;;;;2.90;2.47;;;;;;;12.17;100.00;97943.91;5051778;28;20717;-71
2022/12/25 11:45:41;;;;;;;4.80;2.33;;;;;;;12.26;100.00;97945.97;5051421;28;20200;-71
2022/12/25 11:48:14;;;;;;;2.17;1.80;;;;;;;12.47;100.00;97940.06;5051198;28;20193;-71
2022/12/25 11:50:46;;;;;;;2.10;1.90;;;;;;;12.51;100.00;97937.75;5051220;28;20714;-71
2022/12/25 11:53:29;;;;;;;2.77;2.00;;;;;;;12.67;100.00;97935.19;5051579;28;20189;-71
2022/12/25 11:56:01;;;;;;;3.03;2.30;;;;;;;12.77;100.00;97930.06;5051157;28;20205;-71
2022/12/25 11:58:40;;;;;;;4.60;2.20;;;;;;;12.76;100.00;97931.13;5050284;28;20193;-70
2022/12/25 12:01:28;;;;;;;2.37;2.17;;;;;;;13.00;100.00;97922.03;5051686;28;20233;-71
2022/12/25 12:03:55;;;;;;;2.27;1.90;;;;;;;13.11;100.00;97923.81;5037511;28;20229;-71
2022/12/25 12:06:50;;;;;;;3.23;2.23;;;;;;;13.14;100.00;97911.88;5052986;28;20647;-71
2022/12/25 12:09:53;;;;;;;2.23;2.03;;;;;;;13.11;100.00;97909.69;5053526;28;20196;-71
2022/12/25 12:12:44;;;;;;;2.07;1.90;;;;;;;13.14;100.00;97888.66;5052166;28;20235;-71
2022/12/25 12:15:22;;;;;;;2.53;2.07;;;;;;;13.14;100.00;97888.66;5052990;28;20190;-71
2022/12/25 12:17:48;;;;;;;3.67;2.40;;;;;;;13.08;100.00;97886.97;5053398;28;20205;-71
2022/12/25 12:20:32;;;;;;;4.30;2.93;;;;;;;13.07;100.00;97884.53;5053280;28;20209;-72
2022/12/25 12:23:02;;;;;;;5.27;2.80;;;;;;;12.99;100.00;97868.88;5052618;28;20221;-71
2022/12/25 12:25:29;;;;;;;6.20;2.67;;;;;;;12.86;100.00;97864.63;5052884;28;20240;-71
2022/12/25 12:27:59;;;;;;;3.63;2.60;;;;;;;12.81;100.00;97869.84;5053801;28;20209;-71
2022/12/25 12:30:30;;;;;;;3.10;2.60;;;;;;;12.80;100.00;97867.41;5053301;28;20572;-71
2022/12/25 12:33:00;;;;;;;4.87;2.83;;;;;;;12.75;100.00;97862.00;5053438;28;20272;-71
2022/12/25 12:35:30;;;;;;;2.93;2.60;;;;;;;12.75;100.00;97870.00;5053333;28;20209;-71
2022/12/25 12:38:18;;;;;;;4.93;2.97;;;;;;;12.51;100.00;97871.91;5052928;28;20221;-72
2022/12/25 12:40:53;;;;;;;3.17;2.77;;;;;;;12.41;100.00;97868.22;5053151;28;20196;-71
2022/12/25 12:43:49;;;;;;;3.30;2.97;;;;;;;12.43;100.00;97876.81;5053213;28;20235;-71
2022/12/25 12:46:27;;;;;;;4.30;3.33;;;;;;;12.35;100.00;97869.16;5050712;28;20307;-71
2022/12/25 12:49:10;;;;;;;2.67;2.47;;;;;;;12.33;100.00;97876.56;5063267;28;20600;-71
2022/12/25 12:51:39;;;;;;;3.67;2.70;;;;;;;12.32;100.00;97882.94;5052773;28;20232;-72
2022/12/25 12:54:24;;;;;;;4.40;2.80;;;;;;;12.38;100.00;97876.69;5068775;28;20300;-71
2022/12/25 12:57:04;;;;;;;3.00;2.70;;;;;;;12.42;100.00;97875.16;5073117;28;20212;-71
2022/12/25 12:59:57;;;;;;;3.37;2.50;;;;;;;12.47;100.00;97878.75;5053055;28;20197;-71
2022/12/25 13:02:52;;;;;;;2.87;2.57;;;;;;;12.40;100.00;97870.09;5053909;28;20231;-71
2022/12/25 13:05:37;;;;;;;2.67;2.47;;;;;;;12.53;100.00;97863.66;5057901;28;20209;-72
2022/12/25 13:08:43;;;;;;;3.28;2.53;;;;;;;12.47;100.00;97861.94;5062133;28;20440;-71
2022/12/25 13:11:22;;;;;;;2.60;2.20;;;;;;;12.60;100.00;97854.50;5054540;28;20231;-71
2022/12/25 13:13:51;;;;;;;3.23;2.17;;;;;;;12.63;100.00;97846.03;5056621;28;20528;-71
2022/12/25 13:16:26;;;;;;;2.83;2.27;;;;;;;12.80;100.00;97840.75;5057778;28;20220;-71
2022/12/25 13:18:55;;;;;;;3.13;2.40;;;;;;;12.99;100.00;97851.03;5067141;28;20587;-71
2022/12/25 13:21:27;;;;;;;2.67;2.47;;;;;;;12.87;100.00;97844.88;5068369;28;20272;-71
2022/12/25 13:24:02;;;;;;;3.10;2.60;;;;;;;12.93;100.00;97833.25;5071195;28;20204;-71
2022/12/25 13:26:30;;;;;;;3.57;2.27;;;;;;;12.65;100.00;97843.09;5062744;28;20198;-71
2022/12/25 13:28:56;;;;;;;3.27;2.07;;;;;;;12.65;100.00;97851.91;5064120;28;20201;-71